Louisville, Alabama
Current Conditions -  °F | °C
As of 7:53 AM on Monday 26 Jan 2015 (Local Time) from KTOI Reporting Station
Overcast Overcast  
Wind Chill: 16°   Ceiling: 2900
Heat Index: 16°   Visibility: 10mi
Dew Point:   Wind: 10mph
Humidity: 38%   Direction: 290°WNW
Pressure: 29.96"   Gusts: NA
Location:  31.78°N, 85.56°W
Report Text: KTOI 261353Z AUTO 29009KT 10SM OVC029 16/02 A2996 RMK AO2 SLP142 T01610017
Loading
Personal Weather Stations






























Interactive Weather Map New forecast layout! Learn more

10-Day Weather Forecast

Advertisements
Track Severe Weather on mobile